createdAt,value
2023-01-13T00:01:35.258Z,0.10
2023-01-13T00:04:01.827Z,0.17
2023-01-13T00:06:29.430Z,0.13
2023-01-13T00:08:56.204Z,0.10
2023-01-13T00:11:23.225Z,0.10
2023-01-13T00:13:49.888Z,0.10
2023-01-13T00:16:17.331Z,0.20
2023-01-13T00:18:44.511Z,0.20
2023-01-13T00:21:15.445Z,0.20
2023-01-13T00:23:42.453Z,0.10
2023-01-13T00:26:10.488Z,0.20
2023-01-13T00:28:37.345Z,0.20
2023-01-13T00:31:04.901Z,0.10
2023-01-13T00:33:31.481Z,0.10
2023-01-13T00:35:58.916Z,0.10
2023-01-13T00:38:25.677Z,0.20
2023-01-13T00:40:59.082Z,0.20
2023-01-13T00:43:26.789Z,0.20
2023-01-13T00:45:53.998Z,0.20
2023-01-13T00:48:21.479Z,0.20
2023-01-13T00:50:54.673Z,0.20
2023-01-13T00:53:21.304Z,0.20
2023-01-13T00:55:48.233Z,0.10
2023-01-13T00:58:14.921Z,0.80
2023-01-13T01:00:42.260Z,0.70
2023-01-13T01:03:14.930Z,0.70
2023-01-13T01:05:41.523Z,0.50
2023-01-13T01:08:08.103Z,0.80
2023-01-13T01:10:34.940Z,0.53
2023-01-13T01:13:01.555Z,0.60
2023-01-13T01:15:28.126Z,0.10
2023-01-13T01:17:54.682Z,0.13
2023-01-13T01:20:21.330Z,0.20
2023-01-13T01:22:48.466Z,0.20
2023-01-13T01:25:15.160Z,0.13
2023-01-13T01:27:41.768Z,0.20
2023-01-13T01:30:08.842Z,0.20
2023-01-13T01:32:35.513Z,0.20
2023-01-13T01:35:02.057Z,0.10
2023-01-13T01:37:28.687Z,0.20
2023-01-13T01:39:55.244Z,0.10
2023-01-13T01:42:41.554Z,0.20
2023-01-13T01:45:12.176Z,0.20
2023-01-13T01:47:39.322Z,0.20
2023-01-13T01:50:06.088Z,0.20
2023-01-13T01:52:38.556Z,0.20
2023-01-13T01:55:10.681Z,0.37
2023-01-13T01:57:56.108Z,0.10
2023-01-13T02:00:23.311Z,0.20
2023-01-13T02:02:51.448Z,0.20
2023-01-13T02:05:18.449Z,0.20
2023-01-13T02:07:46.840Z,0.20
2023-01-13T02:10:17.277Z,0.20
2023-01-13T02:12:45.115Z,1.10
2023-01-13T02:15:13.270Z,0.90
2023-01-13T02:17:48.762Z,0.70
2023-01-13T02:20:15.402Z,0.63
2023-01-13T02:23:00.605Z,1.20
2023-01-13T02:25:44.409Z,1.20
2023-01-13T02:28:23.129Z,0.97
2023-01-13T02:31:26.313Z,1.00
2023-01-13T02:34:16.288Z,1.40
2023-01-13T02:36:50.563Z,0.83
2023-01-13T02:39:23.151Z,1.07
2023-01-13T02:42:15.143Z,1.00
2023-01-13T02:45:08.082Z,1.20
2023-01-13T02:47:37.195Z,1.43
2023-01-13T02:50:17.442Z,1.10
2023-01-13T02:52:47.636Z,1.10
2023-01-13T02:55:19.070Z,0.70
2023-01-13T02:57:46.515Z,1.00
2023-01-13T03:00:13.701Z,1.00
2023-01-13T03:02:40.382Z,0.90
2023-01-13T03:05:07.883Z,1.00
2023-01-13T03:07:57.061Z,0.87
2023-01-13T03:10:26.733Z,1.10
2023-01-13T03:13:06.834Z,0.80
2023-01-13T03:15:40.468Z,0.90
2023-01-13T03:18:26.032Z,1.13
2023-01-13T03:21:15.752Z,1.00
2023-01-13T03:24:02.299Z,0.80
2023-01-13T03:26:38.207Z,1.63
2023-01-13T03:29:07.870Z,1.60
2023-01-13T03:31:37.675Z,1.40
2023-01-13T03:34:07.699Z,1.37
2023-01-13T03:36:35.883Z,1.77
2023-01-13T03:39:07.883Z,1.30
2023-01-13T03:41:41.897Z,1.83
2023-01-13T03:44:23.031Z,1.50
2023-01-13T03:47:08.371Z,1.77
2023-01-13T03:49:41.265Z,1.87
2023-01-13T03:52:09.799Z,1.80
2023-01-13T03:54:39.495Z,1.20
2023-01-13T03:57:09.401Z,2.20
2023-01-13T03:59:39.468Z,1.67
2023-01-13T04:02:24.635Z,2.20
2023-01-13T04:05:00.165Z,1.53
2023-01-13T04:07:31.306Z,1.83
2023-01-13T04:10:01.864Z,1.60
2023-01-13T04:12:48.651Z,1.80
2023-01-13T04:15:23.155Z,1.97
2023-01-13T04:17:50.211Z,2.20
2023-01-13T04:20:17.116Z,1.83
2023-01-13T04:22:43.740Z,1.57
2023-01-13T04:25:11.389Z,1.83
2023-01-13T04:27:37.982Z,1.80
2023-01-13T04:30:05.247Z,1.97
2023-01-13T04:32:31.953Z,1.80
2023-01-13T04:34:58.977Z,1.90
2023-01-13T04:37:25.952Z,2.10
2023-01-13T04:39:52.607Z,2.13
2023-01-13T04:42:19.317Z,1.80
2023-01-13T04:44:45.868Z,1.30
2023-01-13T04:47:12.567Z,1.30
2023-01-13T04:49:39.159Z,1.30
2023-01-13T04:52:07.642Z,2.17
2023-01-13T04:54:34.358Z,1.47
2023-01-13T04:57:01.097Z,1.57
2023-01-13T04:59:27.686Z,1.70
2023-01-13T05:01:54.534Z,2.07
2023-01-13T05:04:21.290Z,1.30
2023-01-13T05:06:48.507Z,1.37
2023-01-13T05:09:15.853Z,1.30
2023-01-13T05:12:00.987Z,1.40
2023-01-13T05:15:01.089Z,1.40
2023-01-13T05:17:27.871Z,2.03
2023-01-13T05:19:54.735Z,1.80
2023-01-13T05:22:39.800Z,1.97
2023-01-13T05:25:25.097Z,1.93
2023-01-13T05:27:53.232Z,1.80
2023-01-13T05:30:23.711Z,1.70
2023-01-13T05:32:50.382Z,1.40
2023-01-13T05:35:17.292Z,1.83
2023-01-13T05:37:44.483Z,1.33
2023-01-13T05:40:30.510Z,1.67
2023-01-13T05:43:19.783Z,1.70
2023-01-13T05:45:47.616Z,1.20
2023-01-13T05:48:15.174Z,1.47
2023-01-13T05:50:41.806Z,1.30
2023-01-13T05:53:08.417Z,1.40
2023-01-13T05:55:35.333Z,1.30
2023-01-13T05:58:02.034Z,1.60
2023-01-13T06:00:28.717Z,1.50
2023-01-13T06:02:55.444Z,1.50
2023-01-13T06:05:22.124Z,1.67
2023-01-13T06:07:48.743Z,1.30
2023-01-13T06:10:15.407Z,1.87
2023-01-13T06:12:42.115Z,1.47
2023-01-13T06:15:08.880Z,1.50
2023-01-13T06:17:35.694Z,1.40
2023-01-13T06:20:02.323Z,1.03
2023-01-13T06:22:33.053Z,1.30
2023-01-13T06:24:59.745Z,1.40
2023-01-13T06:27:27.442Z,1.40
2023-01-13T06:29:54.024Z,1.40
2023-01-13T06:32:24.036Z,1.27
2023-01-13T06:34:53.768Z,1.23
2023-01-13T06:37:23.486Z,1.00
2023-01-13T06:39:50.160Z,1.87
2023-01-13T06:42:35.379Z,1.13
2023-01-13T06:45:02.671Z,1.10
2023-01-13T06:47:29.465Z,1.20
2023-01-13T06:49:56.487Z,0.90
2023-01-13T06:52:27.388Z,1.17
2023-01-13T06:54:53.983Z,0.87
2023-01-13T06:57:20.600Z,1.40
2023-01-13T06:59:47.690Z,1.00
2023-01-13T07:02:14.492Z,0.90
2023-01-13T07:04:41.182Z,1.20
2023-01-13T07:07:10.813Z,1.30
2023-01-13T07:09:37.416Z,0.93
2023-01-13T07:12:04.197Z,1.50
2023-01-13T07:14:49.358Z,1.40
2023-01-13T07:17:16.021Z,1.30
2023-01-13T07:19:42.689Z,1.40
2023-01-13T07:22:09.260Z,1.10
2023-01-13T07:24:35.881Z,1.03
2023-01-13T07:27:02.541Z,1.10
2023-01-13T07:29:29.137Z,1.57
2023-01-13T07:31:55.739Z,2.30
2023-01-13T07:34:22.345Z,1.83
2023-01-13T07:36:49.107Z,1.70
2023-01-13T07:39:15.886Z,1.90
2023-01-13T07:42:01.098Z,1.70
2023-01-13T07:44:27.966Z,1.80
2023-01-13T07:46:54.713Z,1.30
2023-01-13T07:49:21.371Z,2.50
2023-01-13T07:51:48.022Z,1.50
2023-01-13T07:54:14.702Z,1.70
2023-01-13T07:56:41.290Z,1.60
2023-01-13T07:59:07.881Z,2.63
2023-01-13T08:01:34.618Z,2.20
2023-01-13T08:04:01.833Z,2.57
2023-01-13T08:06:28.536Z,2.73
2023-01-13T08:08:55.228Z,2.23
2023-01-13T08:11:23.590Z,3.30
2023-01-13T08:13:50.506Z,2.70
2023-01-13T08:16:17.360Z,2.40
2023-01-13T08:18:43.998Z,2.63
2023-01-13T08:21:14.382Z,2.10
2023-01-13T08:23:41.867Z,2.63
2023-01-13T08:26:10.434Z,2.60
2023-01-13T08:28:37.057Z,2.33
2023-01-13T08:31:06.325Z,2.43
2023-01-13T08:33:33.385Z,3.53
2023-01-13T08:36:03.175Z,2.63
2023-01-13T08:38:30.179Z,2.67
2023-01-13T08:40:57.002Z,2.27
2023-01-13T08:43:23.633Z,2.50
2023-01-13T08:45:57.958Z,2.23
2023-01-13T08:48:24.665Z,2.83
2023-01-13T08:50:51.694Z,2.33
2023-01-13T08:53:18.328Z,2.60
2023-01-13T08:55:45.063Z,2.87
2023-01-13T08:58:15.646Z,2.80
2023-01-13T09:00:43.208Z,2.20
2023-01-13T09:03:09.819Z,1.90
2023-01-13T09:05:36.743Z,2.20
2023-01-13T09:08:03.358Z,2.67
2023-01-13T09:10:30.220Z,3.43
2023-01-13T09:13:12.108Z,2.30
2023-01-13T09:15:39.738Z,2.00
2023-01-13T09:18:06.534Z,2.47
2023-01-13T09:20:33.375Z,2.57
2023-01-13T09:23:00.582Z,3.30
2023-01-13T09:25:27.390Z,2.33
2023-01-13T09:27:54.076Z,2.30
2023-01-13T09:30:20.759Z,2.20
2023-01-13T09:32:47.338Z,3.23
2023-01-13T09:35:14.236Z,2.57
2023-01-13T09:37:41.602Z,2.37
2023-01-13T09:40:15.548Z,2.47
2023-01-13T09:43:07.738Z,2.57
2023-01-13T09:45:42.127Z,2.23
2023-01-13T09:48:24.029Z,2.07
2023-01-13T09:50:59.943Z,2.53
2023-01-13T09:53:32.473Z,2.73
2023-01-13T09:55:59.157Z,2.40
2023-01-13T09:58:26.079Z,2.10
2023-01-13T10:01:13.023Z,2.60
2023-01-13T10:03:40.066Z,2.93
2023-01-13T10:06:13.556Z,2.33
2023-01-13T10:08:42.065Z,2.50
2023-01-13T10:11:38.358Z,2.50
2023-01-13T10:14:11.016Z,2.90
2023-01-13T10:16:44.604Z,2.93
2023-01-13T10:19:20.182Z,2.40
2023-01-13T10:22:06.467Z,2.93
2023-01-13T10:24:34.781Z,2.67
2023-01-13T10:27:10.440Z,2.40
2023-01-13T10:29:37.138Z,3.23
2023-01-13T10:32:04.682Z,3.70
2023-01-13T10:34:31.406Z,3.07
2023-01-13T10:37:03.105Z,2.20
2023-01-13T10:39:39.171Z,2.23
2023-01-13T10:42:06.723Z,2.90
2023-01-13T10:44:46.497Z,2.20
2023-01-13T10:47:19.701Z,2.63
2023-01-13T10:49:58.385Z,2.23
2023-01-13T10:52:37.692Z,2.63
2023-01-13T10:55:14.156Z,2.70
2023-01-13T10:57:41.602Z,2.33
2023-01-13T11:00:25.611Z,2.70
2023-01-13T11:03:10.177Z,2.47
2023-01-13T11:05:36.891Z,2.97
2023-01-13T11:08:03.602Z,3.00
2023-01-13T11:10:32.452Z,2.83
2023-01-13T11:13:10.348Z,2.63
2023-01-13T11:15:43.517Z,2.40
2023-01-13T11:18:23.938Z,2.50
2023-01-13T11:20:51.152Z,2.37
2023-01-13T11:23:17.817Z,2.40
2023-01-13T11:25:46.930Z,2.83
2023-01-13T11:28:23.683Z,2.57
2023-01-13T11:30:56.330Z,1.90
2023-01-13T11:33:50.268Z,2.00
2023-01-13T11:36:21.722Z,2.30
2023-01-13T11:39:09.492Z,2.20
2023-01-13T11:41:36.280Z,2.07
2023-01-13T11:44:06.088Z,1.73
2023-01-13T11:46:32.908Z,2.27
2023-01-13T11:48:59.929Z,2.83
2023-01-13T11:51:33.407Z,1.90
2023-01-13T11:54:07.301Z,2.50
2023-01-13T11:56:33.906Z,2.23
2023-01-13T11:59:32.848Z,1.93
2023-01-13T12:02:05.378Z,1.80
2023-01-13T12:04:42.248Z,2.80
2023-01-13T12:07:26.210Z,3.43
2023-01-13T12:10:03.444Z,2.20
2023-01-13T12:12:34.158Z,2.47
2023-01-13T12:15:00.849Z,2.43
2023-01-13T12:17:33.525Z,2.50
2023-01-13T12:20:02.307Z,2.63
2023-01-13T12:22:31.467Z,3.10
2023-01-13T12:25:06.809Z,3.00
2023-01-13T12:27:34.105Z,3.00
2023-01-13T12:30:03.446Z,2.70
2023-01-13T12:32:35.309Z,2.93
2023-01-13T12:35:20.590Z,2.80
2023-01-13T12:37:48.098Z,2.70
2023-01-13T12:40:20.983Z,2.87
2023-01-13T12:43:25.904Z,2.43
2023-01-13T12:45:53.320Z,3.33
2023-01-13T12:48:38.840Z,2.70
2023-01-13T12:51:20.705Z,3.13
2023-01-13T12:53:47.457Z,2.97
2023-01-13T12:56:34.808Z,2.47
2023-01-13T12:59:15.102Z,2.60
2023-01-13T13:01:42.438Z,2.43
2023-01-13T13:04:09.536Z,2.90
2023-01-13T13:06:37.351Z,2.70
2023-01-13T13:09:23.878Z,2.40
2023-01-13T13:11:59.711Z,3.17
2023-01-13T13:14:41.780Z,2.87
2023-01-13T13:17:27.112Z,2.63
2023-01-13T13:19:54.197Z,2.63
2023-01-13T13:22:26.882Z,3.00
2023-01-13T13:24:56.429Z,2.10
2023-01-13T13:27:33.340Z,2.30
2023-01-13T13:30:18.456Z,3.03
2023-01-13T13:33:04.026Z,2.23
2023-01-13T13:35:52.157Z,3.43
2023-01-13T13:38:48.264Z,2.97
2023-01-13T13:41:42.218Z,2.30
2023-01-13T13:44:36.052Z,2.30
2023-01-13T13:47:03.858Z,2.30
2023-01-13T13:49:41.131Z,2.03
2023-01-13T13:52:12.213Z,2.37
2023-01-13T13:54:41.052Z,2.60
2023-01-13T13:57:22.696Z,3.13
2023-01-13T13:59:58.234Z,2.40
2023-01-13T14:02:32.149Z,2.67
2023-01-13T14:05:16.493Z,3.30
2023-01-13T14:07:50.251Z,3.37
2023-01-13T14:10:21.780Z,2.80
2023-01-13T14:12:48.515Z,2.83
2023-01-13T14:15:24.038Z,3.37
2023-01-13T14:17:51.290Z,4.00
2023-01-13T14:20:18.446Z,3.13
2023-01-13T14:22:49.032Z,3.03
2023-01-13T14:25:36.121Z,2.90
2023-01-13T14:28:20.346Z,3.00
2023-01-13T14:30:47.571Z,3.10
2023-01-13T14:33:18.821Z,2.87
2023-01-13T14:36:04.006Z,2.50
2023-01-13T14:38:30.557Z,3.23
2023-01-13T14:40:57.764Z,2.90
2023-01-13T14:43:25.595Z,3.17
2023-01-13T14:45:59.904Z,2.77
2023-01-13T14:48:33.146Z,3.47
2023-01-13T14:51:00.564Z,2.97
2023-01-13T14:53:46.302Z,3.33
2023-01-13T14:56:31.728Z,3.37
2023-01-13T14:59:01.957Z,2.97
2023-01-13T15:01:39.495Z,3.53
2023-01-13T15:04:17.436Z,3.13
2023-01-13T15:06:49.406Z,3.30
2023-01-13T15:09:23.000Z,3.57
2023-01-13T15:11:49.694Z,4.07
2023-01-13T15:14:23.777Z,4.10
2023-01-13T15:16:50.456Z,3.67
2023-01-13T15:19:17.057Z,3.60
2023-01-13T15:21:43.879Z,3.13
2023-01-13T15:24:10.473Z,4.33
2023-01-13T15:26:37.398Z,4.20
2023-01-13T15:29:05.347Z,4.10
2023-01-13T15:31:32.257Z,3.90
2023-01-13T15:34:00.459Z,3.80
2023-01-13T15:36:27.210Z,3.70
2023-01-13T15:38:53.895Z,2.93
2023-01-13T15:41:39.328Z,4.20
2023-01-13T15:44:24.645Z,4.23
2023-01-13T15:46:51.805Z,3.20
2023-01-13T15:49:24.840Z,3.07
2023-01-13T15:51:51.599Z,2.23
2023-01-13T15:54:20.018Z,3.17
2023-01-13T15:56:47.036Z,4.90
2023-01-13T15:59:22.037Z,3.40
2023-01-13T16:01:49.678Z,3.53
2023-01-13T16:04:16.310Z,3.37
2023-01-13T16:06:42.994Z,2.93
2023-01-13T16:09:12.455Z,3.40
2023-01-13T16:11:39.343Z,4.00
2023-01-13T16:14:06.066Z,3.87
2023-01-13T16:16:32.739Z,4.03
2023-01-13T16:18:59.476Z,4.00
2023-01-13T16:21:26.120Z,3.37
2023-01-13T16:23:52.868Z,3.20
2023-01-13T16:26:21.851Z,3.53
2023-01-13T16:28:49.978Z,4.07
2023-01-13T16:31:36.913Z,4.40
2023-01-13T16:34:04.025Z,3.43
2023-01-13T16:36:34.421Z,4.03
2023-01-13T16:39:01.177Z,3.43
2023-01-13T16:41:27.946Z,3.90
2023-01-13T16:43:54.607Z,3.60
2023-01-13T16:46:21.319Z,3.37
2023-01-13T16:48:48.530Z,3.77
2023-01-13T16:51:15.313Z,4.20
2023-01-13T16:53:42.297Z,3.13
2023-01-13T16:56:21.256Z,3.67
2023-01-13T16:58:47.996Z,3.60
2023-01-13T17:01:19.138Z,3.57
2023-01-13T17:03:49.181Z,3.67
2023-01-13T17:06:17.378Z,3.43
2023-01-13T17:08:44.028Z,5.27
2023-01-13T17:11:10.792Z,3.73
2023-01-13T17:13:37.425Z,3.27
2023-01-13T17:16:04.149Z,4.07
2023-01-13T17:18:30.828Z,3.10
2023-01-13T17:21:00.050Z,3.67
2023-01-13T17:23:27.555Z,3.40
2023-01-13T17:25:54.836Z,2.70
2023-01-13T17:28:21.492Z,2.90
2023-01-13T17:30:50.453Z,3.10
2023-01-13T17:33:17.107Z,3.03
2023-01-13T17:35:43.710Z,3.83
2023-01-13T17:38:10.295Z,5.40
2023-01-13T17:40:37.332Z,3.27
2023-01-13T17:43:04.040Z,3.00
2023-01-13T17:45:30.706Z,3.07
2023-01-13T17:47:58.065Z,3.37
2023-01-13T17:50:24.877Z,3.90
2023-01-13T17:52:51.559Z,4.23
2023-01-13T17:55:18.307Z,3.17
2023-01-13T17:57:44.924Z,3.80
2023-01-13T18:00:12.445Z,3.53
2023-01-13T18:02:40.271Z,3.90
2023-01-13T18:05:07.107Z,3.17
2023-01-13T18:07:33.779Z,3.97
2023-01-13T18:10:00.433Z,2.70
2023-01-13T18:12:27.039Z,4.00
2023-01-13T18:14:53.654Z,3.10
2023-01-13T18:17:20.323Z,2.40
2023-01-13T18:20:05.565Z,3.60
2023-01-13T18:22:50.820Z,3.20
2023-01-13T18:25:35.918Z,3.03
2023-01-13T18:28:03.311Z,2.83
2023-01-13T18:30:29.931Z,2.90
2023-01-13T18:32:57.233Z,3.03
2023-01-13T18:35:24.382Z,3.70
2023-01-13T18:37:52.301Z,2.70
2023-01-13T18:40:19.069Z,3.37
2023-01-13T18:42:52.155Z,3.50
2023-01-13T18:45:24.317Z,3.63
2023-01-13T18:47:51.493Z,3.80
2023-01-13T18:50:18.910Z,4.20
2023-01-13T18:52:45.883Z,3.90
2023-01-13T18:55:13.055Z,2.97
2023-01-13T18:57:40.901Z,3.43
2023-01-13T19:00:13.104Z,3.60
2023-01-13T19:02:41.064Z,2.70
2023-01-13T19:05:08.447Z,3.97
2023-01-13T19:07:36.157Z,2.90
2023-01-13T19:10:04.565Z,3.37
2023-01-13T19:12:31.581Z,3.07
2023-01-13T19:14:58.408Z,3.27
2023-01-13T19:17:25.821Z,2.83
2023-01-13T19:19:54.275Z,2.80
2023-01-13T19:22:23.308Z,2.73
2023-01-13T19:24:50.442Z,2.93
2023-01-13T19:27:21.021Z,3.73
2023-01-13T19:29:52.235Z,4.10
2023-01-13T19:32:22.291Z,3.20
2023-01-13T19:34:51.224Z,2.87
2023-01-13T19:37:18.862Z,3.97
2023-01-13T19:39:45.745Z,3.07
2023-01-13T19:42:31.166Z,2.77
2023-01-13T19:45:16.675Z,3.20
2023-01-13T19:47:45.542Z,3.90
2023-01-13T19:50:12.793Z,4.40
2023-01-13T19:52:39.804Z,3.13
2023-01-13T19:55:06.822Z,3.87
2023-01-13T19:57:33.490Z,3.13
2023-01-13T20:00:00.424Z,3.07
2023-01-13T20:02:31.864Z,3.10
2023-01-13T20:05:00.090Z,4.43
2023-01-13T20:07:27.837Z,3.83
2023-01-13T20:09:56.446Z,3.50
2023-01-13T20:12:24.433Z,4.07
2023-01-13T20:14:51.361Z,5.10
2023-01-13T20:17:19.811Z,4.40
2023-01-13T20:19:46.921Z,3.70
2023-01-13T20:22:14.472Z,3.87
2023-01-13T20:24:41.216Z,4.00
2023-01-13T20:27:07.893Z,4.50
2023-01-13T20:29:34.755Z,3.70
2023-01-13T20:32:01.475Z,4.03
2023-01-13T20:34:28.471Z,3.80
2023-01-13T20:36:55.618Z,4.57
2023-01-13T20:39:25.413Z,3.60
2023-01-13T20:42:11.209Z,4.40
2023-01-13T20:44:38.015Z,5.27
2023-01-13T20:47:04.772Z,4.63
2023-01-13T20:49:31.708Z,4.30
2023-01-13T20:51:58.524Z,4.47
2023-01-13T20:54:25.412Z,4.63
2023-01-13T20:56:52.201Z,4.70
2023-01-13T20:59:19.509Z,4.10
2023-01-13T21:01:46.617Z,4.70
2023-01-13T21:04:13.439Z,5.37
2023-01-13T21:06:41.664Z,5.03
2023-01-13T21:09:08.988Z,4.37
2023-01-13T21:11:54.648Z,4.20
2023-01-13T21:14:41.132Z,5.73
2023-01-13T21:17:28.446Z,5.03
2023-01-13T21:19:55.660Z,4.70
2023-01-13T21:22:22.571Z,3.93
2023-01-13T21:24:49.275Z,4.67
2023-01-13T21:27:16.269Z,4.53
2023-01-13T21:29:44.686Z,4.57
2023-01-13T21:32:11.420Z,4.20
2023-01-13T21:34:38.204Z,3.73
2023-01-13T21:37:04.891Z,4.27
2023-01-13T21:39:31.501Z,4.67
2023-01-13T21:42:16.995Z,4.23
2023-01-13T21:45:02.423Z,4.80
2023-01-13T21:47:48.188Z,4.70
2023-01-13T21:50:22.246Z,5.07
2023-01-13T21:52:49.592Z,4.07
2023-01-13T21:55:28.908Z,5.20
2023-01-13T21:57:57.362Z,4.70
2023-01-13T22:00:28.596Z,4.70
2023-01-13T22:02:55.572Z,3.90
2023-01-13T22:05:23.610Z,4.53
2023-01-13T22:07:50.967Z,4.20
2023-01-13T22:10:23.143Z,4.80
2023-01-13T22:12:53.529Z,4.77
2023-01-13T22:15:20.271Z,4.37
2023-01-13T22:17:49.851Z,4.23
2023-01-13T22:20:17.191Z,4.40
2023-01-13T22:22:43.968Z,4.80
2023-01-13T22:25:11.922Z,4.93
2023-01-13T22:27:40.787Z,3.87
2023-01-13T22:30:09.122Z,4.23
2023-01-13T22:32:37.577Z,4.40
2023-01-13T22:35:05.332Z,4.63
2023-01-13T22:37:32.035Z,4.13
2023-01-13T22:39:58.714Z,4.10
2023-01-13T22:42:25.609Z,3.90
2023-01-13T22:44:52.207Z,3.97
2023-01-13T22:47:18.864Z,3.87
2023-01-13T22:49:47.835Z,4.97
2023-01-13T22:52:15.290Z,4.80
2023-01-13T22:54:42.073Z,4.20
2023-01-13T22:57:08.985Z,4.60
2023-01-13T22:59:36.033Z,3.47
2023-01-13T23:02:02.704Z,6.20
2023-01-13T23:04:29.599Z,4.70
2023-01-13T23:06:56.404Z,4.43
2023-01-13T23:09:23.069Z,4.70
2023-01-13T23:11:49.824Z,5.03
2023-01-13T23:14:16.721Z,4.63
2023-01-13T23:16:43.665Z,3.50
2023-01-13T23:19:10.614Z,3.80
2023-01-13T23:21:38.048Z,3.60
2023-01-13T23:24:05.785Z,4.17
2023-01-13T23:26:33.109Z,4.83
2023-01-13T23:29:04.938Z,4.43
2023-01-13T23:31:32.012Z,4.63
2023-01-13T23:33:59.466Z,4.93
2023-01-13T23:36:27.843Z,4.33
2023-01-13T23:38:55.166Z,4.17
2023-01-13T23:41:22.783Z,3.87
2023-01-13T23:43:50.865Z,5.33
2023-01-13T23:46:17.677Z,3.90
2023-01-13T23:48:44.343Z,4.27
2023-01-13T23:51:11.739Z,3.93
2023-01-13T23:53:40.471Z,4.43
2023-01-13T23:56:08.980Z,4.40
2023-01-13T23:58:35.601Z,3.90
